Terminal Aerodrome Forecast
Issued by NWS

Home | Current Version | Previous Version | Text Only | Print | Product List | Glossary Off
Versions: 1 2 3 4 5 6 7 8 9 10 11 12 13 14 15

000
FTUS43 KGRB 191100
TAFCWA
TAF
KCWA 191125Z 1912/2012 18003KT P6SM SCT100 BKN250
     FM191500 19007KT P6SM SCT080 BKN150
     FM191900 21010G19KT P6SM BKN090 OVC150
     FM200100 22005KT P6SM SCT090 BKN250
     FM200700 29006KT P6SM SCT045 BKN090=

USA.gov is the U.S. government's official web portal to all federal, state and local government web resources and services.